Time;durP1;ratioP1;P1;durP2;ratioP2;P2;SDS_P1;SDS_P2;PMS_P1;PMS_P2;Temp;Humidity;BMP_temperature;BMP_pressure;BME280_temperature;BME280_humidity;BME280_pressure;Samples;Min_cycle;Max_cycle;Signal;HPM_P1;HPM_P2
2021/12/23 00:00:17;;;;;;;42.00;20.77;;;;;;;-4.21;71.79;99184.63;2623709;47;20027;-71
2021/12/23 00:02:47;;;;;;;35.97;18.73;;;;;;;-4.24;71.55;99172.75;2622892;47;20030;-71
2021/12/23 00:05:16;;;;;;;31.98;17.67;;;;;;;-4.22;71.07;99172.66;2622920;54;20025;-70
2021/12/23 00:07:46;;;;;;;29.73;16.70;;;;;;;-4.26;71.36;99178.91;2622771;54;20034;-71
2021/12/23 00:10:15;;;;;;;28.50;17.25;;;;;;;-4.33;70.74;99170.72;2623352;39;20536;-70
2021/12/23 00:12:47;;;;;;;31.50;18.00;;;;;;;-4.53;71.09;99174.47;2622460;54;20030;-70
2021/12/23 00:15:30;;;;;;;29.33;17.10;;;;;;;-4.62;71.12;99177.53;2622932;54;20037;-71
2021/12/23 00:18:02;;;;;;;30.55;17.80;;;;;;;-4.64;71.33;99178.56;2623086;47;20030;-71
2021/12/23 00:23:29;;;;;;;32.25;18.90;;;;;;;-4.53;71.60;99171.88;2622551;54;20104;-70
2021/12/23 00:26:03;;;;;;;30.83;18.50;;;;;;;-4.32;71.48;99163.81;2623541;54;20046;-70
2021/12/23 00:28:34;;;;;;;31.25;18.98;;;;;;;-4.19;71.84;99159.56;2623158;54;20058;-69
2021/12/23 00:31:07;;;;;;;33.65;19.70;;;;;;;-4.07;71.45;99160.59;2623426;54;20026;-69
2021/12/23 00:33:40;;;;;;;39.20;21.00;;;;;;;-4.17;70.90;99157.72;2623173;47;20621;-69
2021/12/23 00:36:12;;;;;;;33.13;19.38;;;;;;;-4.19;71.15;99148.41;2623376;47;20039;-69
2021/12/23 00:38:48;;;;;;;34.42;20.08;;;;;;;-4.20;70.92;99147.59;2623846;47;20031;-69
2021/12/23 00:41:19;;;;;;;33.10;19.73;;;;;;;-4.19;71.46;99146.66;2624470;54;20566;-70
2021/12/23 00:43:49;;;;;;;31.80;19.80;;;;;;;-4.15;71.43;99142.97;2625587;39;20509;-69
2021/12/23 00:46:21;;;;;;;33.05;19.17;;;;;;;-4.06;71.58;99136.44;2625718;54;20046;-69
2021/12/23 00:48:51;;;;;;;33.70;19.55;;;;;;;-3.96;71.22;99128.94;2625220;47;20041;-69
2021/12/23 00:51:21;;;;;;;34.03;19.33;;;;;;;-3.81;71.39;99135.75;2625805;54;20034;-70
2021/12/23 00:53:53;;;;;;;34.88;20.25;;;;;;;-3.77;70.94;99135.47;2625618;54;20081;-70
2021/12/23 00:56:23;;;;;;;39.00;20.70;;;;;;;-3.70;70.80;99132.53;2625106;46;20023;-69
2021/12/23 00:58:52;;;;;;;35.17;20.88;;;;;;;-3.77;70.43;99130.31;2625686;47;20026;-69
2021/12/23 01:01:24;;;;;;;35.55;21.58;;;;;;;-3.96;70.19;99134.09;2625037;54;20037;-70
2021/12/23 01:03:54;;;;;;;35.63;21.15;;;;;;;-4.00;70.80;99134.31;2625908;54;20034;-69
2021/12/23 01:06:24;;;;;;;35.38;20.55;;;;;;;-3.85;71.05;99137.69;2625364;47;20026;-70
2021/12/23 01:08:54;;;;;;;33.83;20.50;;;;;;;-3.66;71.01;99134.84;2625487;54;20038;-69
2021/12/23 01:11:24;;;;;;;34.45;20.67;;;;;;;-3.74;70.10;99139.66;2625601;54;20030;-70
2021/12/23 01:14:13;;;;;;;31.85;20.35;;;;;;;-3.85;70.37;99139.47;2624291;46;20030;-69
2021/12/23 01:17:11;;;;;;;35.20;20.10;;;;;;;-3.91;70.63;99145.00;2625084;54;20574;-70
2021/12/23 01:19:49;;;;;;;31.70;19.58;;;;;;;-3.91;70.30;99145.00;2625879;54;20037;-69
2021/12/23 01:22:20;;;;;;;34.47;19.13;;;;;;;-3.94;70.38;99147.78;2626185;39;20433;-69
2021/12/23 01:24:50;;;;;;;28.38;18.67;;;;;;;-3.97;70.57;99148.78;2624945;47;20533;-69
2021/12/23 01:27:19;;;;;;;32.30;20.38;;;;;;;-3.99;70.79;99148.06;2624931;51;20070;-69
2021/12/23 01:29:49;;;;;;;34.85;21.77;;;;;;;-4.02;70.18;99143.91;2625323;54;20154;-69
2021/12/23 01:32:21;;;;;;;35.40;20.17;;;;;;;-4.11;70.10;99133.31;2626200;39;20453;-68
2021/12/23 01:34:51;;;;;;;36.30;21.45;;;;;;;-4.20;70.31;99124.34;2625805;54;20568;-69
2021/12/23 01:37:21;;;;;;;34.25;20.20;;;;;;;-4.18;70.79;99111.34;2625669;54;20030;-69
2021/12/23 01:39:50;;;;;;;39.47;22.02;;;;;;;-4.11;70.88;99104.91;2625382;54;20038;-68
2021/12/23 01:42:20;;;;;;;34.17;20.80;;;;;;;-4.01;70.71;99093.06;2624984;54;20022;-70
2021/12/23 01:44:50;;;;;;;37.83;20.70;;;;;;;-3.97;70.96;99089.38;2625054;54;20022;-70
2021/12/23 01:47:23;;;;;;;30.20;17.75;;;;;;;-3.94;70.63;99090.94;2625600;54;20042;-69
2021/12/23 01:49:53;;;;;;;30.60;18.83;;;;;;;-4.01;70.10;99098.22;2625035;46;20030;-69
2021/12/23 01:52:22;;;;;;;32.33;18.77;;;;;;;-4.13;70.05;99094.63;2625337;54;20038;-70
2021/12/23 01:54:52;;;;;;;35.25;19.10;;;;;;;-4.16;69.88;99092.28;2625636;54;20049;-69
2021/12/23 01:57:22;;;;;;;32.83;19.30;;;;;;;-4.13;70.52;99086.91;2626073;54;20037;-69
2021/12/23 01:59:51;;;;;;;32.05;18.50;;;;;;;-4.22;70.54;99086.63;2625778;54;20038;-69
2021/12/23 02:02:27;;;;;;;31.38;18.33;;;;;;;-4.21;70.86;99102.03;2624610;47;20038;-69
2021/12/23 02:04:57;;;;;;;34.08;18.67;;;;;;;-4.15;70.87;99088.75;2625689;54;20561;-69
2021/12/23 02:07:28;;;;;;;30.58;18.58;;;;;;;-4.11;71.15;99077.31;2625696;54;20589;-70
2021/12/23 02:10:00;;;;;;;34.42;19.10;;;;;;;-4.07;70.97;99065.88;2625736;54;20030;-69
2021/12/23 02:12:30;;;;;;;31.00;18.70;;;;;;;-4.10;70.73;99063.47;2624599;47;20594;-69
2021/12/23 02:15:00;;;;;;;32.28;18.60;;;;;;;-4.05;70.87;99060.63;2625475;54;20037;-69
2021/12/23 02:17:32;;;;;;;33.95;18.92;;;;;;;-4.12;70.84;99073.09;2624911;49;20589;-70
2021/12/23 02:20:05;;;;;;;33.95;18.77;;;;;;;-4.22;70.44;99066.81;2626055;39;20430;-70
2021/12/23 02:22:35;;;;;;;30.33;17.75;;;;;;;-4.14;71.10;99058.59;2625252;54;20046;-69
2021/12/23 02:25:07;;;;;;;36.78;19.27;;;;;;;-4.21;70.75;99050.38;2624957;46;20557;-70
2021/12/23 02:27:37;;;;;;;34.03;19.05;;;;;;;-4.16;70.79;99053.53;2626831;39;20427;-70
2021/12/23 02:30:11;;;;;;;34.03;19.10;;;;;;;-4.22;71.18;99051.31;2625145;54;20041;-69
2021/12/23 02:32:41;;;;;;;26.35;15.85;;;;;;;-4.17;71.12;99056.19;2624374;54;20039;-68
2021/12/23 02:35:21;;;;;;;30.92;18.50;;;;;;;-4.09;71.12;99052.22;2625625;39;20395;-69
2021/12/23 02:37:53;;;;;;;31.70;18.25;;;;;;;-4.08;70.70;99047.91;2625364;54;20130;-69
2021/12/23 02:40:29;;;;;;;32.78;19.98;;;;;;;-4.13;70.90;99044.75;2624644;47;20053;-69
2021/12/23 02:43:08;;;;;;;34.53;20.13;;;;;;;-4.10;71.22;99040.25;2624570;54;20046;-69
2021/12/23 02:45:39;;;;;;;33.45;19.50;;;;;;;-4.06;71.24;99051.22;2623412;39;20407;-69
2021/12/23 02:48:15;;;;;;;35.80;19.85;;;;;;;-4.02;70.87;99048.34;2625530;47;20030;-69
2021/12/23 02:50:49;;;;;;;34.53;19.63;;;;;;;-4.00;71.11;99043.94;2626113;54;20023;-70
2021/12/23 02:53:19;;;;;;;34.55;21.08;;;;;;;-3.96;71.38;99039.41;2625317;39;20409;-70
2021/12/23 02:55:49;;;;;;;37.53;19.95;;;;;;;-3.97;71.44;99048.06;2625999;47;20027;-70
2021/12/23 02:58:19;;;;;;;34.13;20.58;;;;;;;-3.95;70.92;99030.72;2624072;54;20031;-69
2021/12/23 03:00:51;;;;;;;33.72;20.27;;;;;;;-3.89;71.17;99037.25;2623411;54;20029;-69
2021/12/23 03:03:25;;;;;;;39.60;21.08;;;;;;;-3.92;71.55;99045.19;2620687;47;20030;-69
2021/12/23 03:05:59;;;;;;;36.47;20.73;;;;;;;-3.79;71.46;99038.34;2620554;54;20040;-69
2021/12/23 03:08:29;;;;;;;;;;;;;;;-3.59;71.43;99024.19;2620521;54;20026;-69
2021/12/23 03:10:59;;;;;;;35.58;20.50;;;;;;;-3.50;70.81;99024.41;2621107;54;19969;-69
2021/12/23 03:13:29;;;;;;;32.90;20.83;;;;;;;-3.49;70.61;99026.06;2621495;54;20029;-69
2021/12/23 03:15:59;;;;;;;33.97;20.48;;;;;;;-3.44;70.57;99017.19;2621124;54;20030;-70
2021/12/23 03:18:31;;;;;;;33.17;20.90;;;;;;;-3.43;70.53;99017.09;2621462;54;20050;-69
2021/12/23 03:21:04;;;;;;;34.90;21.38;;;;;;;-3.55;70.07;99005.78;2621200;54;20038;-69
2021/12/23 03:23:35;;;;;;;36.90;21.57;;;;;;;-3.51;70.04;99011.59;2619448;39;20457;-69
2021/12/23 03:26:05;;;;;;;38.60;22.00;;;;;;;-3.52;70.02;99013.31;2619634;54;20279;-69
2021/12/23 03:28:37;;;;;;;33.58;21.35;;;;;;;-3.52;70.43;99005.56;2620577;31;20515;-69
2021/12/23 03:31:08;;;;;;;34.85;20.17;;;;;;;-3.50;70.30;98995.97;2619975;39;20147;-69
2021/12/23 03:33:38;;;;;;;35.90;20.65;;;;;;;-3.47;70.05;98996.69;2619993;54;20101;-69
2021/12/23 03:36:11;;;;;;;36.45;21.73;;;;;;;-3.51;70.29;98999.50;2622357;54;20584;-69
2021/12/23 03:38:41;;;;;;;35.83;21.25;;;;;;;-3.58;70.58;98997.41;2623983;39;20418;-69
2021/12/23 03:41:10;;;;;;;36.33;21.42;;;;;;;-3.63;70.30;98992.53;2622804;54;20059;-69
2021/12/23 03:43:40;;;;;;;37.28;21.17;;;;;;;-3.55;70.64;98979.94;2622889;54;20083;-69
2021/12/23 03:46:10;;;;;;;35.83;21.63;;;;;;;-3.49;70.50;98974.34;2623061;54;20027;-69
2021/12/23 03:48:40;;;;;;;36.10;20.80;;;;;;;-3.41;70.18;98976.44;2623078;47;20086;-69
2021/12/23 03:51:13;;;;;;;37.08;22.10;;;;;;;-3.36;70.04;98983.91;2622865;54;20031;-69
2021/12/23 03:53:43;;;;;;;37.28;21.88;;;;;;;-3.30;70.02;98986.94;2623004;54;20039;-69
2021/12/23 03:56:14;;;;;;;37.08;22.10;;;;;;;-3.28;70.06;98981.63;2623694;47;20032;-69
2021/12/23 03:58:43;;;;;;;38.20;20.80;;;;;;;-3.31;69.87;98987.00;2624030;54;20031;-69
2021/12/23 04:01:13;;;;;;;39.63;22.98;;;;;;;-3.40;70.00;98979.84;2623117;47;20030;-69
2021/12/23 04:03:43;;;;;;;38.25;21.42;;;;;;;-3.51;69.85;98978.81;2623725;54;20085;-69
2021/12/23 04:06:15;;;;;;;36.85;21.52;;;;;;;-3.56;69.98;98978.25;2624084;39;20414;-69
2021/12/23 04:08:48;;;;;;;37.00;22.63;;;;;;;-3.55;69.87;98968.78;2623460;47;20041;-69
2021/12/23 04:11:18;;;;;;;39.10;21.52;;;;;;;-3.43;69.74;98972.28;2622934;54;20042;-69
2021/12/23 04:13:48;;;;;;;32.33;19.88;;;;;;;-3.36;69.77;98971.81;2623077;54;20045;-69
2021/12/23 04:16:18;;;;;;;34.25;21.48;;;;;;;-3.32;69.79;98957.75;2622893;47;20049;-69
2021/12/23 04:18:50;;;;;;;35.22;21.98;;;;;;;-3.33;69.47;98953.50;2623564;31;20667;-69
2021/12/23 04:21:22;;;;;;;34.15;20.83;;;;;;;-3.38;69.98;98958.16;2623284;47;20041;-69
2021/12/23 04:23:52;;;;;;;42.20;21.33;;;;;;;-3.28;70.16;98961.78;2623443;54;20030;-70
2021/12/23 04:26:22;;;;;;;37.40;22.00;;;;;;;-3.26;69.68;98935.84;2623128;54;20041;-69
2021/12/23 04:28:52;;;;;;;36.08;21.33;;;;;;;-3.38;69.21;98944.41;2622840;54;20030;-69
2021/12/23 04:31:23;;;;;;;34.85;21.48;;;;;;;-3.33;69.68;98935.41;2624100;54;20027;-69
2021/12/23 04:33:55;;;;;;;42.25;23.15;;;;;;;-3.34;69.29;98920.00;2623346;54;20034;-70
2021/12/23 04:36:29;;;;;;;35.10;22.00;;;;;;;-3.43;69.26;98911.13;2623701;47;20038;-69
2021/12/23 04:38:59;;;;;;;54.88;29.92;;;;;;;-3.64;69.68;98909.91;2624161;47;20034;-68
2021/12/23 04:41:31;;;;;;;34.28;21.35;;;;;;;-3.70;69.87;98903.41;2624242;54;20050;-69
2021/12/23 04:44:01;;;;;;;34.33;20.95;;;;;;;-3.69;70.25;98905.06;2625302;54;20057;-69
2021/12/23 04:46:30;;;;;;;38.28;21.27;;;;;;;-3.58;70.40;98906.97;2626220;54;20026;-69
2021/12/23 04:49:00;;;;;;;38.50;21.40;;;;;;;-3.54;70.31;98914.41;2626267;54;20549;-69
2021/12/23 04:51:32;;;;;;;35.38;20.73;;;;;;;-3.42;69.98;98924.88;2624668;54;20039;-70
2021/12/23 04:54:02;;;;;;;32.95;20.45;;;;;;;-3.43;69.73;98916.28;2624172;54;20023;-69
2021/12/23 04:56:31;;;;;;;37.45;21.48;;;;;;;-3.39;69.95;98928.09;2625509;54;20049;-69
2021/12/23 04:59:01;;;;;;;34.85;20.42;;;;;;;-3.35;69.31;98923.50;2625284;54;20038;-70
2021/12/23 05:01:32;;;;;;;38.03;20.35;;;;;;;-3.39;69.18;98932.41;2624548;54;20031;-69
2021/12/23 05:04:05;;;;;;;38.03;21.73;;;;;;;-3.52;69.13;98928.03;2623797;47;20042;-68
2021/12/23 05:06:42;;;;;;;38.38;21.48;;;;;;;-3.61;69.64;98923.47;2624531;46;20034;-70
2021/12/23 05:09:12;;;;;;;41.83;23.15;;;;;;;-3.58;69.66;98918.13;2623768;46;20039;-68
2021/12/23 05:11:44;;;;;;;44.05;23.58;;;;;;;-3.57;69.81;98921.53;2624678;46;20042;-69
2021/12/23 05:14:13;;;;;;;38.35;21.50;;;;;;;-3.53;69.75;98918.63;2625011;47;20027;-69
2021/12/23 05:16:43;;;;;;;35.75;21.60;;;;;;;-3.48;69.57;98915.75;2624957;54;20031;-69
2021/12/23 05:19:15;;;;;;;41.20;22.98;;;;;;;-3.47;69.63;98920.00;2624405;47;20541;-69
2021/12/23 05:21:47;;;;;;;37.22;22.55;;;;;;;-3.53;69.26;98923.81;2624950;54;20030;-69
2021/12/23 05:24:17;;;;;;;35.08;21.83;;;;;;;-3.54;70.07;98911.81;2624968;54;20038;-69
2021/12/23 05:26:48;;;;;;;37.65;20.63;;;;;;;-3.53;69.86;98921.22;2624106;47;20038;-70
2021/12/23 05:29:18;;;;;;;37.58;22.90;;;;;;;-3.47;69.69;98919.16;2625020;54;20042;-69
2021/12/23 05:31:48;;;;;;;40.03;23.70;;;;;;;-3.39;69.92;98916.88;2624472;54;20049;-68
2021/12/23 05:34:18;;;;;;;39.17;21.77;;;;;;;-3.42;70.05;98911.94;2624732;54;20022;-69
2021/12/23 05:36:50;;;;;;;37.67;22.00;;;;;;;-3.38;69.84;98910.81;2625110;54;20026;-69
2021/12/23 05:39:20;;;;;;;33.65;21.67;;;;;;;-3.35;69.88;98913.16;2626931;39;20495;-69
2021/12/23 05:41:49;;;;;;;39.25;21.48;;;;;;;-3.30;69.75;98908.53;2623633;47;20038;-69
2021/12/23 05:44:19;;;;;;;37.53;21.60;;;;;;;-3.33;69.11;98921.66;2622851;54;20034;-69
2021/12/23 05:46:49;;;;;;;38.58;21.33;;;;;;;-3.36;69.22;98914.94;2621588;54;20038;-70
2021/12/23 05:49:18;;;;;;;37.55;20.77;;;;;;;-3.50;69.16;98900.34;2621400;54;20077;-69
2021/12/23 05:51:51;;;;;;;36.05;21.67;;;;;;;-3.49;69.09;98906.34;2620929;54;20026;-69
2021/12/23 05:54:22;;;;;;;37.50;21.10;;;;;;;-3.43;69.23;98900.78;2623703;51;20022;-68
2021/12/23 05:56:52;;;;;;;39.60;21.80;;;;;;;-3.44;69.45;98904.28;2623650;54;20050;-68
2021/12/23 05:59:22;;;;;;;39.55;22.35;;;;;;;-3.32;69.30;98892.28;2624988;54;20041;-68
2021/12/23 06:01:51;;;;;;;35.45;21.02;;;;;;;-3.22;69.33;98879.59;2624310;47;20030;-69
2021/12/23 06:04:21;;;;;;;38.38;22.17;;;;;;;-3.21;69.19;98881.25;2625091;54;20034;-71
2021/12/23 06:06:54;;;;;;;38.42;22.33;;;;;;;-3.25;69.15;98883.19;2625744;39;20406;-69
2021/12/23 06:09:24;;;;;;;40.05;22.13;;;;;;;-3.27;69.15;98885.91;2625171;54;20038;-69
2021/12/23 06:11:53;;;;;;;37.58;21.33;;;;;;;-3.45;69.05;98881.13;2625022;54;20030;-71
2021/12/23 06:14:23;;;;;;;37.60;23.92;;;;;;;-3.67;69.30;98881.72;2624443;54;20026;-75
2021/12/23 06:16:56;;;;;;;41.72;22.98;;;;;;;-3.60;69.75;98881.19;2625389;54;20027;-69
2021/12/23 06:19:25;;;;;;;36.95;22.52;;;;;;;-3.49;69.55;98873.56;2624743;47;20025;-69
2021/12/23 06:21:58;;;;;;;41.47;22.80;;;;;;;-3.54;69.06;98865.28;2624458;54;20033;-70
2021/12/23 06:24:27;;;;;;;43.75;24.40;;;;;;;-3.60;68.96;98868.28;2624571;54;20138;-69
2021/12/23 06:26:57;;;;;;;42.80;23.38;;;;;;;-3.70;69.42;98872.41;2625083;54;20031;-69
2021/12/23 06:29:27;;;;;;;38.42;22.90;;;;;;;-3.67;69.40;98866.22;2625151;54;20038;-69
2021/12/23 06:31:57;;;;;;;39.65;22.33;;;;;;;-3.57;69.67;98875.84;2624735;54;20045;-72
2021/12/23 06:34:27;;;;;;;37.75;21.15;;;;;;;-3.51;69.67;98853.94;2625010;54;20058;-70
2021/12/23 06:37:00;;;;;;;40.70;23.00;;;;;;;-3.49;69.65;98839.97;2624646;47;20026;-68
2021/12/23 06:39:30;;;;;;;35.15;22.02;;;;;;;-3.40;69.96;98848.03;2624352;47;20029;-70
2021/12/23 06:41:59;;;;;;;38.17;20.27;;;;;;;-3.33;69.54;98842.34;2624389;47;20711;-72
2021/12/23 06:44:29;;;;;;;36.83;20.65;;;;;;;-3.37;69.13;98847.84;2624918;54;20098;-69
2021/12/23 06:46:59;;;;;;;35.22;21.10;;;;;;;-3.46;69.19;98844.13;2624860;47;20038;-69
2021/12/23 06:49:31;;;;;;;38.22;21.98;;;;;;;-3.50;69.12;98850.41;2624140;47;20049;-70
2021/12/23 06:52:05;;;;;;;35.90;21.47;;;;;;;-3.51;69.43;98857.34;2624729;54;20030;-70
2021/12/23 06:54:41;;;;;;;36.95;21.88;;;;;;;-3.50;69.60;98861.59;2624806;54;20845;-69
2021/12/23 06:57:11;;;;;;;37.50;21.38;;;;;;;-3.51;69.55;98862.53;2624389;54;20022;-70
2021/12/23 06:59:40;;;;;;;40.30;23.58;;;;;;;-3.44;69.71;98857.75;2624279;54;20552;-72
2021/12/23 07:02:11;;;;;;;44.75;24.65;;;;;;;-3.39;69.61;98857.44;2623728;54;20074;-70
2021/12/23 07:04:43;;;;;;;36.85;23.42;;;;;;;-3.52;69.12;98862.59;2624103;54;20021;-69
2021/12/23 07:07:25;;;;;;;36.70;23.20;;;;;;;-3.44;70.06;98862.91;2624094;54;20030;-69
2021/12/23 07:09:55;;;;;;;43.60;22.77;;;;;;;-3.53;69.43;98858.38;2623880;47;20026;-69
2021/12/23 08:45:43;;;;;;;38.22;23.05;;;;;;;-2.11;69.76;98808.75;2574490;54;20416;-69
2021/12/23 08:48:13;;;;;;;41.00;22.08;;;;;;;-2.06;69.73;98810.06;2623158;54;20030;-69
2021/12/23 08:50:43;;;;;;;41.72;26.25;;;;;;;-1.92;70.42;98813.41;2623792;54;20044;-70
2021/12/23 08:53:12;;;;;;;38.83;23.70;;;;;;;-1.74;70.47;98804.28;2623620;54;20026;-69
2021/12/23 08:55:42;;;;;;;41.15;25.15;;;;;;;-1.58;70.38;98802.19;2624238;54;20030;-71
2021/12/23 08:58:12;;;;;;;41.00;23.95;;;;;;;-1.48;70.02;98801.47;2624912;54;20039;-70
2021/12/23 09:00:44;;;;;;;44.75;26.10;;;;;;;-1.38;70.10;98799.84;2624470;54;20071;-68
2021/12/23 09:03:14;;;;;;;48.85;27.52;;;;;;;-1.28;70.48;98804.19;2624080;54;20033;-69
2021/12/23 09:05:45;;;;;;;46.38;27.67;;;;;;;-1.19;70.25;98791.47;2624704;54;20049;-69
2021/12/23 09:08:17;;;;;;;47.38;27.92;;;;;;;-1.14;69.99;98779.81;2623971;54;20030;-68
2021/12/23 09:10:47;;;;;;;46.17;29.15;;;;;;;-1.29;69.74;98791.34;2624698;54;20050;-68
2021/12/23 09:13:17;;;;;;;50.38;27.00;;;;;;;-1.37;69.92;98791.13;2624351;47;20544;-70
2021/12/23 09:15:49;;;;;;;44.45;27.48;;;;;;;-1.38;70.46;98798.06;2627249;39;20433;-71
2021/12/23 09:18:19;;;;;;;45.92;26.88;;;;;;;-1.29;70.89;98796.53;2625621;54;20099;-70
2021/12/23 09:20:49;;;;;;;46.92;26.67;;;;;;;-1.12;71.33;98798.66;2625665;54;20041;-70
2021/12/23 09:23:19;;;;;;;44.13;28.33;;;;;;;-0.98;71.07;98794.16;2625627;54;20034;-70
2021/12/23 09:25:49;;;;;;;46.60;27.95;;;;;;;-0.91;70.57;98790.97;2626937;39;20546;-70
2021/12/23 09:28:32;;;;;;;44.55;29.15;;;;;;;-0.81;70.53;98791.91;2625648;54;20514;-70
2021/12/23 09:33:48;;;;;;;43.42;26.95;;;;;;;-0.50;70.75;98816.25;2625061;39;20469;-70
2021/12/23 09:36:18;;;;;;;44.13;26.30;;;;;;;-0.40;70.61;98810.34;2624633;54;20063;-70
2021/12/23 09:38:48;;;;;;;46.70;26.05;;;;;;;-0.34;70.88;98815.84;2624514;47;20046;-70
2021/12/23 09:41:20;;;;;;;39.80;24.13;;;;;;;-0.30;70.92;98813.84;2624963;54;20038;-71
2021/12/23 09:43:51;;;;;;;40.00;24.90;;;;;;;-0.20;71.33;98808.75;2624698;54;20031;-70
2021/12/23 09:46:24;;;;;;;38.47;23.70;;;;;;;-0.07;71.42;98807.59;2623828;54;20038;-71
2021/12/23 09:48:54;;;;;;;37.85;23.63;;;;;;;-0.01;71.30;98809.69;2624633;39;20085;-71
2021/12/23 09:51:24;;;;;;;41.42;25.15;;;;;;;0.05;71.61;98805.78;2624050;46;20038;-71
2021/12/23 09:54:00;;;;;;;39.55;25.05;;;;;;;0.12;71.68;98793.09;2624704;54;20026;-70
2021/12/23 09:56:31;;;;;;;41.20;27.52;;;;;;;0.18;71.91;98790.00;2626561;54;20045;-71
2021/12/23 09:59:02;;;;;;;40.03;25.98;;;;;;;0.31;71.49;98785.41;2626695;54;20045;-72
2021/12/23 10:01:36;;;;;;;46.25;26.52;;;;;;;0.37;71.98;98784.94;2624294;54;20026;-71
2021/12/23 10:04:06;;;;;;;41.85;25.13;;;;;;;0.46;71.50;98775.53;2625909;54;20027;-72
2021/12/23 10:06:36;;;;;;;43.88;25.27;;;;;;;0.55;71.90;98782.53;2625937;54;20045;-71
2021/12/23 10:09:06;;;;;;;42.97;25.27;;;;;;;0.63;71.88;98784.50;2625584;54;20035;-71
2021/12/23 10:11:57;;;;;;;45.28;26.80;;;;;;;0.68;71.66;98779.72;2624072;51;20063;-71
2021/12/23 10:31:20;;;;;;;43.33;25.63;;;;;;;1.21;71.27;98738.63;2625005;54;20038;-71
2021/12/23 10:37:18;;;;;;;40.40;24.77;;;;;;;1.36;71.75;98717.44;2624863;54;20066;-71
2021/12/23 10:39:51;;;;;;;37.08;24.10;;;;;;;1.45;71.43;98722.63;2625219;39;20482;-73
2021/12/23 10:42:23;;;;;;;41.88;25.60;;;;;;;1.51;71.74;98723.03;2624457;39;20673;-72
2021/12/23 10:44:54;;;;;;;42.15;24.77;;;;;;;1.50;71.69;98722.22;2623513;54;20068;-73
2021/12/23 10:47:40;;;;;;;40.83;25.23;;;;;;;1.56;72.18;98723.47;2625754;39;20436;-74
2021/12/23 10:50:31;;;;;;;44.10;25.05;;;;;;;1.58;72.17;98708.50;2625043;54;20031;-72
2021/12/23 10:53:06;;;;;;;41.00;25.52;;;;;;;1.60;72.07;98712.63;2623729;47;20548;-72
2021/12/23 10:58:20;;;;;;;41.17;25.52;;;;;;;1.72;72.10;98692.47;2624600;39;20425;-74
2021/12/23 11:00:53;;;;;;;42.03;27.50;;;;;;;1.82;72.10;98685.44;2624530;54;20078;-73
2021/12/23 11:03:27;;;;;;;39.60;24.98;;;;;;;1.91;72.21;98689.00;2623624;54;20569;-73
2021/12/23 11:06:09;;;;;;;44.25;26.30;;;;;;;1.98;71.96;98680.47;2623631;54;20045;-73
2021/12/23 11:08:48;;;;;;;38.78;25.17;;;;;;;2.06;72.23;98682.38;2622922;47;20022;-71
2021/12/23 11:28:11;;;;;;;35.78;24.65;;;;;;;2.66;71.80;98640.25;2622867;54;20030;-73
2021/12/23 11:37:02;;;;;;;38.80;23.85;;;;;;;2.94;72.24;98641.06;2623517;54;20081;-73
2021/12/23 11:39:33;;;;;;;33.08;20.80;;;;;;;3.04;72.24;98644.41;2623350;54;20053;-74
2021/12/23 11:42:14;;;;;;;40.58;24.58;;;;;;;3.12;72.22;98633.22;2626048;39;20682;-73
2021/12/23 11:44:44;;;;;;;32.75;20.98;;;;;;;3.22;71.95;98628.72;2626456;54;20042;-72
2021/12/23 11:47:15;;;;;;;39.40;23.27;;;;;;;3.29;72.12;98623.72;2626091;54;20034;-73
2021/12/23 11:49:46;;;;;;;31.58;21.05;;;;;;;3.32;72.21;98618.22;2625810;54;20038;-72
2021/12/23 11:52:16;;;;;;;66.82;33.13;;;;;;;3.40;71.90;98623.50;2624290;54;20030;-73
2021/12/23 11:54:49;;;;;;;33.20;20.85;;;;;;;3.47;72.13;98612.28;2624014;54;20030;-73
2021/12/23 11:57:22;;;;;;;37.50;22.20;;;;;;;3.54;72.22;98609.06;2623904;54;20042;-71
2021/12/23 12:00:07;;;;;;;46.28;26.15;;;;;;;3.62;71.52;98609.13;2625113;54;20026;-73
2021/12/23 12:02:38;;;;;;;38.95;23.92;;;;;;;3.69;71.54;98599.69;2625045;54;20031;-73
2021/12/23 12:05:17;;;;;;;41.00;23.70;;;;;;;3.75;71.94;98604.28;2625987;54;20026;-73
2021/12/23 12:07:48;;;;;;;32.35;19.52;;;;;;;3.88;71.64;98596.88;2625288;54;20034;-72
2021/12/23 12:10:24;;;;;;;47.05;21.65;;;;;;;3.93;71.51;98589.38;2626526;39;20457;-73
2021/12/23 12:13:02;;;;;;;45.40;19.70;;;;;;;4.01;71.60;98587.78;2624976;54;20038;-72
2021/12/23 12:15:50;;;;;;;36.35;18.73;;;;;;;4.10;71.37;98585.03;2625061;54;20574;-73
2021/12/23 12:18:22;;;;;;;41.03;19.75;;;;;;;4.14;71.58;98575.09;2625349;39;20469;-72
2021/12/23 12:20:58;;;;;;;35.72;17.63;;;;;;;4.23;71.33;98574.94;2624852;54;20034;-72
2021/12/23 12:23:34;;;;;;;30.73;17.23;;;;;;;4.32;71.21;98567.13;2624899;54;20035;-72
2021/12/23 12:26:10;;;;;;;28.02;16.55;;;;;;;4.36;70.70;98577.13;2625227;54;20038;-73
2021/12/23 12:28:46;;;;;;;26.13;15.57;;;;;;;4.38;71.03;98569.94;2624618;54;20030;-74
2021/12/23 12:31:18;;;;;;;25.30;15.32;;;;;;;4.44;70.53;98568.47;2623547;54;20034;-73
2021/12/23 12:34:05;;;;;;;23.65;14.57;;;;;;;4.48;70.59;98564.56;2624078;54;20464;-73
2021/12/23 12:36:42;;;;;;;22.23;15.65;;;;;;;4.52;70.62;98557.22;2624111;54;20085;-74
2021/12/23 12:39:18;;;;;;;25.15;15.93;;;;;;;4.55;70.59;98556.91;2622997;54;20048;-73
2021/12/23 12:41:51;;;;;;;26.70;16.20;;;;;;;4.61;70.37;98543.16;2622617;54;20039;-73
2021/12/23 12:44:28;;;;;;;23.88;15.70;;;;;;;4.61;70.16;98548.41;2622993;54;20038;-72
2021/12/23 12:47:07;;;;;;;24.67;15.80;;;;;;;4.63;70.14;98549.06;2622502;54;20031;-73
2021/12/23 12:49:40;;;;;;;21.67;14.93;;;;;;;4.69;70.45;98536.16;2622818;54;20609;-72
2021/12/23 12:52:14;;;;;;;26.50;15.80;;;;;;;4.72;70.04;98532.38;2621910;54;20027;-73
2021/12/23 12:54:48;;;;;;;24.77;16.10;;;;;;;4.72;69.87;98535.81;2623135;54;20039;-74
2021/12/23 12:57:23;;;;;;;25.55;15.65;;;;;;;4.77;70.22;98530.09;2623528;54;20023;-73
2021/12/23 12:59:53;;;;;;;25.45;15.88;;;;;;;4.78;69.74;98534.38;2622718;54;20027;-74
2021/12/23 13:02:30;;;;;;;23.27;15.15;;;;;;;4.84;70.09;98520.63;2622609;54;20067;-73
2021/12/23 13:05:03;;;;;;;20.95;14.27;;;;;;;4.87;70.15;98522.09;2623084;54;20546;-73
2021/12/23 13:08:24;;;;;;;23.70;14.23;;;;;;;4.90;69.76;98506.06;2623169;54;20062;-73
2021/12/23 13:11:21;;;;;;;21.13;13.80;;;;;;;4.95;69.89;98501.97;2623085;54;20037;-72
2021/12/23 13:14:25;;;;;;;20.77;13.20;;;;;;;5.00;69.80;98498.03;2623363;47;20045;-71
2021/12/23 13:17:13;;;;;;;26.90;13.88;;;;;;;4.98;69.30;98500.81;2625071;54;20038;-71
2021/12/23 13:19:43;;;;;;;19.55;13.88;;;;;;;5.00;69.77;98500.66;2627091;54;20030;-72
2021/12/23 13:22:33;;;;;;;18.63;13.20;;;;;;;4.99;69.43;98499.84;2627192;54;20019;-73
2021/12/23 13:25:05;;;;;;;19.33;13.23;;;;;;;4.98;69.45;98495.59;2627140;54;20034;-73
2021/12/23 13:27:35;;;;;;;21.83;13.75;;;;;;;5.00;69.83;98498.84;2627189;54;20022;-73
2021/12/23 13:30:11;;;;;;;20.92;13.50;;;;;;;5.02;69.43;98493.44;2627078;54;20042;-73
2021/12/23 13:32:40;;;;;;;23.42;13.52;;;;;;;4.99;69.29;98486.72;2626991;54;20038;-73
2021/12/23 13:35:17;;;;;;;19.80;12.68;;;;;;;5.02;69.58;98496.91;2625692;46;20035;-73
2021/12/23 13:37:47;;;;;;;20.85;13.50;;;;;;;5.04;69.69;98499.34;2625815;54;20118;-72
2021/12/23 13:40:28;;;;;;;24.27;16.73;;;;;;;5.03;69.28;98485.44;2626237;54;20058;-72
2021/12/23 13:42:58;;;;;;;20.90;13.43;;;;;;;5.07;69.73;98497.22;2625227;54;20608;-74
2021/12/23 13:45:33;;;;;;;20.33;13.23;;;;;;;5.06;69.63;98490.34;2624759;39;20116;-72
2021/12/23 13:48:10;;;;;;;16.02;11.90;;;;;;;5.08;69.48;98480.50;2625030;54;20031;-72
2021/12/23 13:50:48;;;;;;;19.33;12.65;;;;;;;5.10;69.08;98480.31;2624599;54;20038;-72
2021/12/23 13:53:18;;;;;;;17.42;11.38;;;;;;;5.03;69.41;98468.88;2624526;54;20045;-74
2021/12/23 13:55:50;;;;;;;20.00;12.30;;;;;;;5.04;69.41;98470.53;2624078;54;20042;-73
2021/12/23 13:58:26;;;;;;;19.55;12.85;;;;;;;5.05;69.38;98470.34;2624552;54;20034;-72
2021/12/23 14:00:58;;;;;;;19.50;12.65;;;;;;;5.06;69.36;98466.75;2624286;54;20034;-74
2021/12/23 14:03:28;;;;;;;19.05;13.45;;;;;;;5.09;69.51;98468.22;2625025;39;20528;-73
2021/12/23 14:05:57;;;;;;;17.52;11.57;;;;;;;5.08;69.54;98470.03;2625569;54;20045;-72
2021/12/23 14:08:30;;;;;;;20.52;12.98;;;;;;;5.13;69.52;98456.41;2623403;47;20030;-73